createdAt,value
2019-06-07T00:01:50.673Z,25.63
2019-06-07T00:04:21.501Z,29.20
2019-06-07T00:06:50.889Z,23.10
2019-06-07T00:09:22.506Z,21.00
2019-06-07T00:11:51.376Z,23.50
2019-06-07T00:14:21.269Z,19.30
2019-06-07T00:16:50.987Z,22.63
2019-06-07T00:19:20.570Z,24.03
2019-06-07T00:22:15.781Z,24.93
2019-06-07T00:24:21.847Z,27.93
2019-06-07T00:26:58.540Z,24.23
2019-06-07T00:29:22.548Z,23.23
2019-06-07T00:31:51.754Z,27.90
2019-06-07T00:34:23.008Z,26.30
2019-06-07T00:36:52.887Z,28.87
2019-06-07T00:39:25.581Z,31.87
2019-06-07T00:41:53.252Z,27.17
2019-06-07T00:44:23.584Z,25.33
2019-06-07T00:46:52.984Z,31.40
2019-06-07T00:49:40.025Z,34.93
2019-06-07T00:51:54.119Z,29.00
2019-06-07T00:54:24.831Z,23.60
2019-06-07T00:56:54.747Z,32.60
2019-06-07T00:59:29.196Z,28.60
2019-06-07T01:01:54.945Z,33.37
2019-06-07T01:04:26.693Z,30.97
2019-06-07T01:06:56.073Z,31.53
2019-06-07T01:09:25.644Z,37.10
2019-06-07T01:11:55.004Z,42.33
2019-06-07T01:14:28.081Z,37.57
2019-06-07T01:17:01.418Z,37.00
2019-06-07T01:19:27.845Z,36.93
2019-06-07T01:21:57.486Z,35.80
2019-06-07T01:24:28.104Z,37.43
2019-06-07T01:26:57.625Z,32.23
2019-06-07T01:29:30.909Z,36.13
2019-06-07T01:31:58.656Z,35.60
2019-06-07T01:34:28.911Z,42.17
2019-06-07T01:36:58.850Z,51.83
2019-06-07T01:39:31.067Z,51.63
2019-06-07T01:41:59.091Z,46.83
2019-06-07T01:44:30.729Z,40.83
2019-06-07T01:46:59.330Z,43.47
2019-06-07T01:49:29.865Z,46.20
2019-06-07T01:51:59.388Z,44.33
2019-06-07T01:57:00.309Z,44.20
2019-06-07T01:59:31.644Z,48.23
2019-06-07T02:02:02.737Z,56.03
2019-06-07T02:04:33.384Z,55.27
2019-06-07T02:07:04.899Z,47.63
2019-06-07T02:09:34.282Z,45.07
2019-06-07T02:12:24.752Z,51.57
2019-06-07T02:14:34.556Z,52.83
2019-06-07T02:17:05.692Z,53.97
2019-06-07T02:19:34.999Z,51.33
2019-06-07T02:22:04.298Z,53.00
2019-06-07T02:24:35.812Z,50.00
2019-06-07T02:27:05.595Z,53.60
2019-06-07T02:29:35.457Z,57.40
2019-06-07T02:32:04.706Z,52.73
2019-06-07T02:34:38.563Z,52.43
2019-06-07T02:37:05.175Z,54.93
2019-06-07T02:39:40.182Z,52.70
2019-06-07T02:42:07.700Z,49.43
2019-06-07T02:44:39.424Z,55.23
2019-06-07T02:47:08.413Z,53.60
2019-06-07T02:49:41.381Z,64.73
2019-06-07T02:52:09.228Z,57.10
2019-06-07T02:54:40.525Z,61.83
2019-06-07T02:57:11.621Z,61.67
2019-06-07T03:00:05.102Z,59.90
2019-06-07T03:02:13.585Z,51.20
2019-06-07T03:04:44.872Z,67.70
2019-06-07T03:07:14.187Z,59.67
2019-06-07T03:09:43.983Z,56.10
2019-06-07T03:12:15.381Z,55.17
2019-06-07T03:14:44.808Z,56.67
2019-06-07T03:17:37.817Z,53.77
2019-06-07T03:20:06.767Z,56.70
2019-06-07T03:22:39.858Z,56.47
2019-06-07T03:25:09.606Z,55.50
2019-06-07T03:27:48.624Z,70.40
2019-06-07T03:30:36.499Z,58.77
2019-06-07T03:32:47.169Z,54.83
2019-06-07T03:35:14.152Z,54.10
2019-06-07T03:37:43.432Z,66.93
2019-06-07T03:40:13.143Z,48.50
2019-06-07T03:42:42.400Z,54.57
2019-06-07T03:45:12.177Z,51.37
2019-06-07T03:47:43.033Z,59.63
2019-06-07T03:50:12.597Z,54.00
2019-06-07T03:52:41.997Z,51.80
2019-06-07T03:55:12.304Z,51.07
2019-06-07T04:00:13.665Z,44.65
2019-06-07T04:02:43.632Z,42.10
2019-06-07T04:05:13.129Z,49.83
2019-06-07T04:07:44.479Z,41.43
2019-06-07T04:10:14.056Z,38.77
2019-06-07T04:12:44.421Z,40.43
2019-06-07T04:15:14.123Z,35.33
2019-06-07T04:18:00.891Z,33.87
2019-06-07T04:20:14.992Z,36.17
2019-06-07T04:22:44.239Z,48.60
2019-06-07T04:25:13.872Z,38.77
2019-06-07T04:27:43.145Z,42.67
2019-06-07T04:30:12.598Z,41.00
2019-06-07T04:32:45.069Z,42.40
2019-06-07T04:35:14.845Z,34.97
2019-06-07T04:37:44.098Z,35.57
2019-06-07T04:40:13.602Z,39.50
2019-06-07T04:42:45.241Z,39.60
2019-06-07T04:45:33.027Z,41.90
2019-06-07T04:47:46.535Z,41.60
2019-06-07T04:50:16.137Z,48.07
2019-06-07T04:52:46.443Z,44.67
2019-06-07T04:55:16.072Z,40.43
2019-06-07T04:57:45.752Z,41.50
2019-06-07T05:00:46.658Z,37.77
2019-06-07T05:02:47.848Z,37.80
2019-06-07T05:05:17.162Z,40.50
2019-06-07T05:07:46.955Z,32.50
2019-06-07T05:10:16.457Z,31.27
2019-06-07T05:12:46.206Z,36.43
2019-06-07T05:15:15.980Z,30.70
2019-06-07T05:17:47.171Z,30.47
2019-06-07T05:20:17.165Z,27.17
2019-06-07T05:22:46.927Z,29.93
2019-06-07T05:25:17.221Z,25.33
2019-06-07T05:27:48.181Z,28.33
2019-06-07T05:33:04.845Z,24.93
2019-06-07T05:35:35.571Z,23.00
2019-06-07T05:38:05.487Z,22.50
2019-06-07T05:40:39.464Z,30.10
2019-06-07T05:43:10.381Z,25.80
2019-06-07T05:45:44.994Z,25.60
2019-06-07T05:48:11.132Z,25.93
2019-06-07T05:50:49.978Z,24.07
2019-06-07T05:53:11.446Z,26.63
2019-06-07T05:55:45.082Z,24.97
2019-06-07T05:58:12.409Z,28.90
2019-06-07T06:00:47.146Z,22.93
2019-06-07T06:03:14.771Z,26.73
2019-06-07T06:05:53.970Z,25.33
2019-06-07T06:08:15.053Z,27.00
2019-06-07T06:10:48.313Z,25.73
2019-06-07T06:13:17.476Z,26.87
2019-06-07T06:16:00.886Z,24.77
2019-06-07T06:18:18.654Z,26.97
2019-06-07T06:21:09.812Z,23.20
2019-06-07T06:23:19.311Z,21.90
2019-06-07T06:25:55.840Z,23.13
2019-06-07T06:28:20.523Z,27.70
2019-06-07T06:30:51.044Z,23.03
2019-06-07T06:33:33.452Z,23.10
2019-06-07T06:35:52.076Z,23.83
2019-06-07T06:38:21.488Z,24.13
2019-06-07T06:41:11.711Z,20.30
2019-06-07T06:43:21.719Z,19.17
2019-06-07T06:45:51.034Z,19.73
2019-06-07T06:48:20.695Z,27.00
2019-06-07T06:50:52.352Z,22.63
2019-06-07T06:53:20.897Z,21.83
2019-06-07T06:55:51.416Z,18.67
2019-06-07T06:58:21.048Z,23.60
2019-06-07T07:01:04.945Z,25.53
2019-06-07T07:05:55.041Z,18.27
2019-06-07T07:08:24.599Z,22.23
2019-06-07T07:10:55.059Z,22.13
2019-06-07T07:13:24.566Z,17.27
2019-06-07T07:15:57.899Z,21.33
2019-06-07T07:18:26.680Z,21.97
2019-06-07T07:20:57.595Z,20.67
2019-06-07T07:23:27.082Z,22.80
2019-06-07T07:25:59.223Z,20.30
2019-06-07T07:28:27.646Z,19.53
2019-06-07T07:30:57.454Z,23.50
2019-06-07T07:34:20.083Z,19.07
2019-06-07T07:36:22.734Z,20.13
2019-06-07T07:38:31.447Z,22.50
2019-06-07T07:41:14.133Z,26.07
2019-06-07T07:43:32.162Z,17.57
2019-06-07T07:46:03.111Z,20.50
2019-06-07T07:48:33.076Z,23.00
2019-06-07T07:51:04.082Z,20.37
2019-06-07T07:53:48.630Z,19.80
2019-06-07T07:56:05.988Z,19.73
2019-06-07T07:58:35.695Z,18.97
2019-06-07T08:01:10.645Z,22.00
2019-06-07T08:03:36.713Z,20.97
2019-06-07T08:06:06.643Z,21.73
2019-06-07T08:08:35.877Z,20.10
2019-06-07T08:11:06.139Z,20.07
2019-06-07T08:13:35.818Z,24.63
2019-06-07T08:16:13.677Z,21.33
2019-06-07T08:18:37.714Z,21.67
2019-06-07T08:21:23.245Z,21.07
2019-06-07T08:23:37.936Z,29.73
2019-06-07T08:26:07.296Z,19.40
2019-06-07T08:28:37.476Z,24.03
2019-06-07T08:31:07.901Z,23.47
2019-06-07T08:33:37.634Z,24.97
2019-06-07T08:36:21.847Z,22.43
2019-06-07T08:38:47.392Z,22.93
2019-06-07T08:41:12.003Z,23.33
2019-06-07T08:43:40.167Z,28.90
2019-06-07T08:46:09.390Z,25.03
2019-06-07T08:48:38.682Z,19.50
2019-06-07T08:51:08.825Z,26.73
2019-06-07T08:53:38.167Z,24.33
2019-06-07T08:56:10.876Z,19.97
2019-06-07T08:58:38.616Z,29.97
2019-06-07T09:01:09.110Z,21.63
2019-06-07T09:03:39.345Z,18.60
2019-06-07T09:06:53.896Z,16.20
2019-06-07T09:08:40.782Z,15.97
2019-06-07T09:11:11.168Z,14.23
2019-06-07T09:13:40.919Z,15.10
2019-06-07T09:16:10.204Z,14.40
2019-06-07T09:18:43.901Z,12.80
2019-06-07T09:21:11.434Z,13.63
2019-06-07T09:23:40.995Z,11.43
2019-06-07T09:26:18.390Z,10.57
2019-06-07T09:28:44.001Z,14.70
2019-06-07T09:31:14.010Z,11.67
2019-06-07T09:33:43.331Z,11.13
2019-06-07T09:36:13.529Z,16.03
2019-06-07T09:38:44.107Z,12.93
2019-06-07T09:41:13.649Z,14.33
2019-06-07T09:46:16.041Z,10.00
2019-06-07T09:49:10.735Z,12.97
2019-06-07T09:51:19.631Z,16.57
2019-06-07T09:53:47.187Z,11.87
2019-06-07T09:56:16.520Z,14.13
2019-06-07T09:58:51.765Z,9.43
2019-06-07T10:01:18.124Z,9.73
2019-06-07T10:03:47.834Z,13.10
2019-06-07T10:06:17.416Z,10.53
2019-06-07T10:11:18.062Z,12.40
2019-06-07T10:13:47.347Z,9.17
2019-06-07T10:16:16.921Z,7.90
2019-06-07T10:18:46.197Z,9.60
2019-06-07T10:21:17.512Z,9.67
2019-06-07T10:23:46.754Z,13.60
2019-06-07T10:26:16.020Z,9.30
2019-06-07T10:28:45.660Z,11.07
2019-06-07T10:31:14.894Z,14.80
2019-06-07T10:33:45.299Z,10.77
2019-06-07T10:36:14.904Z,13.60
2019-06-07T10:38:44.499Z,10.87
2019-06-07T10:41:14.244Z,9.87
2019-06-07T10:43:43.494Z,14.20
2019-06-07T10:46:13.113Z,8.70
2019-06-07T10:48:42.377Z,12.57
2019-06-07T10:51:14.621Z,9.87
2019-06-07T10:53:43.194Z,10.37
2019-06-07T10:56:13.607Z,11.43
2019-06-07T10:58:44.839Z,22.13
2019-06-07T11:01:14.621Z,14.90
2019-06-07T11:03:43.820Z,12.60
2019-06-07T11:06:14.296Z,9.07
2019-06-07T11:08:43.765Z,8.57
2019-06-07T11:11:14.399Z,8.10
2019-06-07T11:13:43.866Z,7.10
2019-06-07T11:16:13.512Z,11.43
2019-06-07T11:18:44.834Z,7.13
2019-06-07T11:21:14.491Z,9.93
2019-06-07T11:23:43.866Z,7.73
2019-06-07T11:26:14.380Z,6.47
2019-06-07T11:28:43.835Z,11.13
2019-06-07T11:31:15.081Z,14.70
2019-06-07T11:33:45.779Z,11.17
2019-06-07T11:36:15.406Z,6.27
2019-06-07T11:38:45.241Z,6.10
2019-06-07T11:41:15.678Z,7.87
2019-06-07T11:43:45.518Z,11.10
2019-06-07T11:46:15.167Z,7.53
2019-06-07T11:48:44.956Z,7.07
2019-06-07T11:51:14.928Z,5.70
2019-06-07T11:53:44.280Z,5.30
2019-06-07T11:56:15.952Z,5.07
2019-06-07T11:58:45.317Z,10.10
2019-06-07T12:01:16.643Z,5.53
2019-06-07T12:03:46.059Z,6.57
2019-06-07T12:06:16.410Z,5.40
2019-06-07T12:08:46.074Z,7.30
2019-06-07T12:11:16.551Z,6.67
2019-06-07T12:13:46.051Z,5.37
2019-06-07T12:16:17.244Z,9.03
2019-06-07T12:18:46.689Z,9.13
2019-06-07T12:21:16.046Z,8.43
2019-06-07T12:23:45.691Z,5.37
2019-06-07T12:26:16.587Z,8.50
2019-06-07T12:28:46.003Z,7.00
2019-06-07T12:31:17.073Z,5.50
2019-06-07T12:33:46.934Z,7.67
2019-06-07T12:36:17.822Z,5.70
2019-06-07T12:38:47.514Z,5.97
2019-06-07T12:41:18.899Z,6.50
2019-06-07T12:43:48.505Z,6.43
2019-06-07T12:46:23.360Z,5.97
2019-06-07T12:48:49.118Z,4.80
2019-06-07T12:51:21.325Z,9.63
2019-06-07T12:53:50.585Z,7.63
2019-06-07T12:56:19.889Z,6.37
2019-06-07T12:58:50.558Z,5.57
2019-06-07T13:01:21.391Z,7.20
2019-06-07T13:03:53.656Z,7.60
2019-06-07T13:06:23.994Z,6.60
2019-06-07T13:08:53.298Z,4.73
2019-06-07T13:11:29.299Z,4.57
2019-06-07T13:13:53.883Z,4.97
2019-06-07T13:16:24.229Z,6.37
2019-06-07T13:18:53.913Z,5.63
2019-06-07T13:21:24.666Z,5.77
2019-06-07T13:23:54.329Z,5.07
2019-06-07T13:26:24.942Z,5.00
2019-06-07T13:28:54.332Z,5.63
2019-06-07T13:31:25.301Z,5.20
2019-06-07T13:33:55.323Z,6.27
2019-06-07T13:36:24.611Z,7.33
2019-06-07T13:38:53.840Z,6.83
2019-06-07T13:41:36.530Z,4.63
2019-06-07T13:43:54.583Z,9.17
2019-06-07T13:46:25.269Z,6.80
2019-06-07T13:48:54.749Z,12.10
2019-06-07T13:51:25.138Z,9.13
2019-06-07T13:53:55.042Z,7.13
2019-06-07T13:56:26.035Z,6.47
2019-06-07T13:58:55.595Z,4.80
2019-06-07T14:01:27.215Z,4.77
2019-06-07T14:03:57.495Z,8.20
2019-06-07T14:06:27.972Z,5.03
2019-06-07T14:08:59.058Z,7.30
2019-06-07T14:11:29.938Z,4.30
2019-06-07T14:14:00.438Z,5.80
2019-06-07T14:16:30.411Z,5.67
2019-06-07T14:18:59.763Z,10.13
2019-06-07T14:21:30.759Z,5.10
2019-06-07T14:24:00.491Z,5.00
2019-06-07T14:26:29.883Z,8.23
2019-06-07T14:29:00.726Z,5.77
2019-06-07T14:31:30.460Z,7.13
2019-06-07T14:34:00.028Z,4.23
2019-06-07T14:36:31.445Z,5.03
2019-06-07T14:39:01.321Z,10.63
2019-06-07T14:41:31.815Z,7.80
2019-06-07T14:44:01.212Z,6.57
2019-06-07T14:46:30.651Z,3.67
2019-06-07T14:49:00.159Z,6.53
2019-06-07T14:51:31.773Z,5.00
2019-06-07T14:54:00.735Z,4.87
2019-06-07T14:56:31.225Z,3.90
2019-06-07T14:59:03.022Z,4.10
2019-06-07T15:01:33.461Z,7.50
2019-06-07T15:04:03.677Z,4.57
2019-06-07T15:06:33.010Z,5.90
2019-06-07T15:09:02.562Z,6.07
2019-06-07T15:11:32.983Z,9.90
2019-06-07T15:14:02.511Z,3.57
2019-06-07T15:16:33.854Z,4.27
2019-06-07T15:19:04.371Z,7.03
2019-06-07T15:21:35.204Z,4.93
2019-06-07T15:24:04.570Z,5.33
2019-06-07T15:26:34.562Z,3.63
2019-06-07T15:29:04.489Z,4.50
2019-06-07T15:31:34.654Z,4.23
2019-06-07T15:34:04.506Z,7.07
2019-06-07T15:36:36.410Z,3.80
2019-06-07T15:39:07.608Z,7.63
2019-06-07T15:41:39.683Z,3.93
2019-06-07T15:44:09.210Z,4.13
2019-06-07T15:46:40.206Z,4.40
2019-06-07T15:49:09.941Z,3.40
2019-06-07T15:51:40.988Z,4.70
2019-06-07T15:54:10.697Z,5.30
2019-06-07T15:56:41.212Z,3.70
2019-06-07T15:59:10.696Z,3.80
2019-06-07T16:01:42.064Z,6.60
2019-06-07T16:04:11.545Z,4.77
2019-06-07T16:06:43.181Z,3.80
2019-06-07T16:09:11.850Z,5.67
2019-06-07T16:11:43.475Z,8.30
2019-06-07T16:14:13.383Z,4.87
2019-06-07T16:16:43.366Z,4.50
2019-06-07T16:19:12.674Z,5.23
2019-06-07T16:21:42.005Z,4.60
2019-06-07T16:24:11.467Z,4.70
2019-06-07T16:26:42.431Z,8.93
2019-06-07T16:29:11.982Z,6.67
2019-06-07T16:31:41.251Z,5.93
2019-06-07T16:34:12.127Z,4.70
2019-06-07T16:36:42.303Z,3.13
2019-06-07T16:39:12.163Z,3.43
2019-06-07T16:41:42.844Z,4.63
2019-06-07T16:44:12.679Z,3.50
2019-06-07T16:46:44.896Z,3.33
2019-06-07T16:49:16.868Z,3.57
2019-06-07T16:51:49.404Z,3.30
2019-06-07T16:54:20.535Z,7.27
2019-06-07T16:56:51.433Z,5.80
2019-06-07T16:59:24.927Z,4.40
2019-06-07T17:01:54.240Z,5.60
2019-06-07T17:04:23.851Z,7.17
2019-06-07T17:06:53.393Z,4.40
2019-06-07T17:09:24.005Z,14.00
2019-06-07T17:11:54.079Z,7.07
2019-06-07T17:14:24.098Z,5.20
2019-06-07T17:16:53.763Z,11.60
2019-06-07T17:19:23.719Z,4.07
2019-06-07T17:21:52.965Z,5.00
2019-06-07T17:24:22.576Z,6.40
2019-06-07T17:26:54.426Z,5.17
2019-06-07T17:29:23.853Z,4.73
2019-06-07T17:31:53.187Z,5.63
2019-06-07T17:34:23.249Z,8.67
2019-06-07T17:36:52.870Z,6.20
2019-06-07T17:39:22.167Z,6.40
2019-06-07T17:42:01.856Z,6.87
2019-06-07T17:44:24.537Z,4.87
2019-06-07T17:46:55.635Z,5.97
2019-06-07T17:49:25.397Z,5.43
2019-06-07T17:51:54.976Z,6.20
2019-06-07T17:54:27.651Z,5.00
2019-06-07T17:56:57.307Z,6.70
2019-06-07T17:59:26.632Z,5.03
2019-06-07T18:02:13.265Z,8.40
2019-06-07T18:04:27.255Z,6.83
2019-06-07T18:06:57.845Z,14.80
2019-06-07T18:09:27.521Z,6.20
2019-06-07T18:11:56.826Z,6.80
2019-06-07T18:14:26.514Z,8.60
2019-06-07T18:16:56.508Z,2.63
2019-06-07T18:19:26.213Z,4.33
2019-06-07T18:21:58.821Z,3.30
2019-06-07T18:24:28.643Z,11.60
2019-06-07T18:26:58.937Z,9.10
2019-06-07T18:29:30.391Z,4.43
2019-06-07T18:32:00.427Z,4.50
2019-06-07T18:34:30.327Z,2.97
2019-06-07T18:37:01.530Z,3.23
2019-06-07T18:39:31.100Z,1.27
2019-06-07T18:42:00.840Z,4.77
2019-06-07T18:44:30.479Z,2.03
2019-06-07T18:47:00.822Z,2.17
2019-06-07T18:49:30.865Z,2.33
2019-06-07T18:52:22.977Z,4.27
2019-06-07T18:54:53.162Z,6.30
2019-06-07T18:57:23.407Z,1.83
2019-06-07T18:59:54.390Z,2.80
2019-06-07T19:02:25.369Z,2.97
2019-06-07T19:04:56.372Z,1.33
2019-06-07T19:07:27.381Z,1.27
2019-06-07T19:09:56.991Z,1.93
2019-06-07T19:12:26.562Z,2.03
2019-06-07T19:14:55.919Z,2.30
2019-06-07T19:17:25.214Z,5.77
2019-06-07T19:19:55.989Z,2.37
2019-06-07T19:22:25.961Z,2.00
2019-06-07T19:24:56.932Z,4.93
2019-06-07T19:27:27.619Z,3.80
2019-06-07T19:29:57.255Z,2.67
2019-06-07T19:32:27.280Z,4.97
2019-06-07T19:34:57.482Z,1.50
2019-06-07T19:37:26.952Z,3.53
2019-06-07T19:39:58.026Z,1.60
2019-06-07T19:42:28.067Z,3.60
2019-06-07T19:45:16.527Z,1.40
2019-06-07T19:47:28.914Z,2.43
2019-06-07T19:49:59.147Z,3.57
2019-06-07T19:52:28.366Z,1.00
2019-06-07T19:55:00.121Z,1.40
2019-06-07T19:57:29.796Z,3.57
2019-06-07T20:00:02.730Z,6.20
2019-06-07T20:02:33.425Z,1.63
2019-06-07T20:05:06.751Z,1.20
2019-06-07T20:07:34.691Z,5.03
2019-06-07T20:10:04.806Z,1.87
2019-06-07T20:12:34.710Z,1.30
2019-06-07T20:15:25.170Z,6.00
2019-06-07T20:17:35.993Z,1.57
2019-06-07T20:20:05.866Z,4.23
2019-06-07T20:22:35.083Z,1.57
2019-06-07T20:25:05.045Z,4.20
2019-06-07T20:27:34.948Z,1.10
2019-06-07T20:30:04.700Z,1.03
2019-06-07T20:32:34.310Z,3.80
2019-06-07T20:35:04.151Z,1.53
2019-06-07T20:37:33.469Z,3.43
2019-06-07T20:40:19.559Z,2.37
2019-06-07T20:42:34.180Z,3.33
2019-06-07T20:45:03.948Z,1.33
2019-06-07T20:47:33.833Z,2.03
2019-06-07T20:50:04.151Z,2.40
2019-06-07T20:52:33.536Z,2.90
2019-06-07T20:55:03.242Z,2.20
2019-06-07T20:57:32.833Z,3.80
2019-06-07T21:00:10.567Z,1.00
2019-06-07T21:02:34.142Z,1.13
2019-06-07T21:05:03.553Z,6.50
2019-06-07T21:07:32.838Z,3.57
2019-06-07T21:10:03.638Z,1.70
2019-06-07T21:12:33.632Z,4.07
2019-06-07T21:15:07.075Z,8.00
2019-06-07T21:17:34.167Z,3.63
2019-06-07T21:20:05.462Z,1.67
2019-06-07T21:22:34.730Z,2.80
2019-06-07T21:25:07.094Z,4.00
2019-06-07T21:27:36.559Z,2.80
2019-06-07T21:30:07.271Z,2.20
2019-06-07T21:32:38.440Z,1.70
2019-06-07T21:35:10.218Z,1.40
2019-06-07T21:37:39.594Z,2.03
2019-06-07T21:40:10.335Z,1.40
2019-06-07T21:42:40.111Z,2.73
2019-06-07T21:45:10.038Z,2.27
2019-06-07T21:47:41.876Z,4.77
2019-06-07T21:50:12.791Z,2.43
2019-06-07T21:52:42.281Z,2.50
2019-06-07T21:55:12.043Z,1.30
2019-06-07T21:57:41.655Z,1.60
2019-06-07T22:00:17.708Z,1.37
2019-06-07T22:02:47.049Z,1.53
2019-06-07T22:05:16.692Z,2.17
2019-06-07T22:07:46.342Z,1.50
2019-06-07T22:10:16.334Z,2.10
2019-06-07T22:12:45.629Z,2.80
2019-06-07T22:15:32.054Z,2.13
2019-06-07T22:17:47.647Z,1.80
2019-06-07T22:20:17.070Z,3.57
2019-06-07T22:22:46.325Z,1.37
2019-06-07T22:25:17.540Z,2.63
2019-06-07T22:27:46.854Z,1.40
2019-06-07T22:30:16.082Z,3.83
2019-06-07T22:32:46.720Z,2.70
2019-06-07T22:35:16.329Z,2.13
2019-06-07T22:37:45.818Z,1.83
2019-06-07T22:40:15.473Z,1.83
2019-06-07T22:42:45.849Z,2.00
2019-06-07T22:45:16.669Z,3.23
2019-06-07T22:47:46.522Z,3.47
2019-06-07T22:50:18.545Z,1.87
2019-06-07T22:52:51.444Z,6.97
2019-06-07T22:55:21.996Z,2.80
2019-06-07T22:57:58.530Z,2.23
2019-06-07T23:00:30.300Z,1.77
2019-06-07T23:03:00.045Z,15.67
2019-06-07T23:05:29.658Z,4.90
2019-06-07T23:07:59.323Z,2.80
2019-06-07T23:10:28.612Z,6.07
2019-06-07T23:12:59.616Z,4.77
2019-06-07T23:15:29.217Z,2.20
2019-06-07T23:18:00.368Z,5.23
2019-06-07T23:20:31.400Z,3.12
2019-06-07T23:23:02.743Z,1.50
2019-06-07T23:25:32.387Z,1.80
2019-06-07T23:28:01.611Z,2.53
2019-06-07T23:30:31.365Z,3.63
2019-06-07T23:33:02.084Z,4.13
2019-06-07T23:35:31.316Z,5.20
2019-06-07T23:38:00.597Z,3.83
2019-06-07T23:40:30.258Z,1.97
2019-06-07T23:42:59.531Z,2.73
2019-06-07T23:45:29.235Z,1.20
2019-06-07T23:47:59.001Z,1.60
2019-06-07T23:50:28.556Z,5.03
2019-06-07T23:52:59.597Z,6.57
2019-06-07T23:55:28.882Z,3.13
2019-06-07T23:57:58.586Z,1.90
